Orbital elements of COSMOS 2251 DEB
| Launched | 15 June 1993 |
| Flight ended | – |
| Launch site | Plesetsk Missile and Space Complex, Russia |
| Owner | Commonwealth of Independent States (former USSR) |
| NORAD ID | 39583 |
| Date fetched |
Epoch osculation |
Inc. [°] |
Ecc. | RA asc node [hr] |
Arg Peri. [°] |
Mean anom [°] |
Mean motion [rev/day] |
Abs. mag |
| Date fetched |
Epoch osculation |
Inc. [°] |
Ecc. | RA asc node [hr] |
Arg Peri. [°] |
Mean anom [°] |
Mean motion [rev/day] |
Abs. mag |
| 2026 May 03 17:57 | 2026 Apr 28 20:55:18 | 73.9318 | 0.01308 | 22.8643 | 67.3781 | 294.1161 | 14.63267 | – |
| 2026 May 02 17:57 | 2026 Apr 28 20:55:18 | 73.9318 | 0.01308 | 22.8643 | 67.3781 | 294.1161 | 14.63267 | – |
| 2026 May 01 17:56 | 2026 Apr 28 20:55:18 | 73.9318 | 0.01308 | 22.8643 | 67.3781 | 294.1161 | 14.63267 | – |
| 2026 Apr 30 17:56 | 2026 Apr 28 20:55:18 | 73.9318 | 0.01308 | 22.8643 | 67.3781 | 294.1161 | 14.63267 | – |
| 2026 Apr 29 17:57 | 2026 Apr 20 22:34:22 | 73.9326 | 0.01331 | 23.8855 | 84.6681 | 294.1161 | 14.63267 | – |
| 2026 Apr 28 17:56 | 2026 Apr 20 22:34:22 | 73.9326 | 0.01331 | 23.8855 | 84.6681 | 294.1161 | 14.63267 | – |
| 2026 Apr 27 17:58 | 2026 Apr 20 22:34:22 | 73.9326 | 0.01331 | 23.8855 | 84.6681 | 294.1161 | 14.63267 | – |
| 2026 Apr 26 17:58 | 2026 Apr 20 22:34:22 | 73.9326 | 0.01331 | 23.8855 | 84.6681 | 294.1161 | 14.63267 | – |
| 2026 Apr 25 17:58 | 2026 Apr 20 22:34:22 | 73.9326 | 0.01331 | 23.8855 | 84.6681 | 294.1161 | 14.63267 | – |
| 2026 Apr 24 17:59 | 2026 Apr 20 22:34:22 | 73.9326 | 0.01331 | 23.8855 | 84.6681 | 294.1161 | 14.63267 | – |
| 2026 Apr 23 17:57 | 2026 Apr 18 22:58:56 | 73.9334 | 0.01325 | 0.1407 | 88.8618 | 294.1161 | 14.63267 | – |
| 2026 Apr 22 17:57 | 2026 Apr 18 22:58:56 | 73.9334 | 0.01325 | 0.1407 | 88.8618 | 294.1161 | 14.63267 | – |
| 2026 Apr 21 17:57 | 2026 Apr 18 22:58:56 | 73.9334 | 0.01325 | 0.1407 | 88.8618 | 294.1161 | 14.63267 | – |
| 2026 Apr 20 17:57 | 2026 Apr 18 22:58:56 | 73.9334 | 0.01325 | 0.1407 | 88.8618 | 294.1161 | 14.63267 | – |
| 2026 Apr 19 17:58 | 2026 Apr 18 22:58:56 | 73.9334 | 0.01325 | 0.1407 | 88.8618 | 294.1161 | 14.63267 | – |
| 2026 Apr 18 17:56 | 2026 Apr 10 11:28:52 | 73.9339 | 0.01322 | 1.2317 | 107.2626 | 294.1161 | 14.63267 | – |
| 2026 Apr 16 17:57 | 2026 Apr 10 11:28:52 | 73.9339 | 0.01322 | 1.2317 | 107.2626 | 294.1161 | 14.63267 | – |
| 2026 Apr 14 17:57 | 2026 Apr 10 11:28:52 | 73.9339 | 0.01322 | 1.2317 | 107.2626 | 294.1161 | 14.63267 | – |
| 2026 Apr 13 17:57 | 2026 Apr 10 11:28:52 | 73.9339 | 0.01322 | 1.2317 | 107.2626 | 294.1161 | 14.63267 | – |
| 2026 Apr 12 17:57 | 2026 Apr 08 11:53:08 | 73.9335 | 0.01321 | 1.4869 | 111.5784 | 294.1161 | 14.63267 | – |
| 2026 Apr 11 17:57 | 2026 Apr 08 11:53:08 | 73.9335 | 0.01321 | 1.4869 | 111.5784 | 294.1161 | 14.63267 | – |
| 2026 Apr 10 17:58 | 2026 Apr 08 11:53:08 | 73.9335 | 0.01321 | 1.4869 | 111.5784 | 294.1161 | 14.63267 | – |
| 2026 Apr 09 18:01 | 2026 Apr 08 11:53:08 | 73.9335 | 0.01321 | 1.4869 | 111.5784 | 294.1161 | 14.63267 | – |
| 2026 Apr 08 17:57 | 2026 Apr 08 11:53:08 | 73.9335 | 0.01321 | 1.4869 | 111.5784 | 294.1161 | 14.63267 | – |
| 2026 Apr 07 17:57 | 2026 Apr 01 04:15:39 | 73.9329 | 0.01322 | 2.4281 | 127.4755 | 294.1161 | 14.63267 | – |
| 2026 Apr 06 17:57 | 2026 Apr 01 04:15:39 | 73.9329 | 0.01322 | 2.4281 | 127.4755 | 294.1161 | 14.63267 | – |